createdAt,value
2019-02-20T00:01:44.239Z,79.47
2019-02-20T00:04:14.737Z,79.60
2019-02-20T00:06:45.651Z,79.02
2019-02-20T00:09:16.502Z,79.14
2019-02-20T00:11:47.382Z,79.26
2019-02-20T00:14:18.121Z,79.33
2019-02-20T00:16:48.880Z,79.28
2019-02-20T00:19:20.291Z,78.79
2019-02-20T00:21:51.151Z,79.46
2019-02-20T00:24:22.028Z,78.95
2019-02-20T00:26:52.462Z,79.30
2019-02-20T00:29:23.145Z,78.52
2019-02-20T00:31:53.969Z,78.89
2019-02-20T00:34:24.705Z,78.55
2019-02-20T00:36:55.563Z,78.77
2019-02-20T00:39:26.283Z,78.60
2019-02-20T00:41:57.045Z,78.25
2019-02-20T00:44:41.802Z,78.65
2019-02-20T00:47:29.415Z,78.09
2019-02-20T00:50:00.414Z,78.14
2019-02-20T00:52:49.799Z,78.14
2019-02-20T00:55:17.623Z,78.81
2019-02-20T00:57:48.455Z,78.20
2019-02-20T01:00:19.279Z,78.42
2019-02-20T01:02:50.115Z,78.20
2019-02-20T01:05:20.966Z,78.08
2019-02-20T01:07:51.786Z,78.03
2019-02-20T01:10:22.725Z,78.48
2019-02-20T01:12:53.558Z,78.68
2019-02-20T01:15:24.309Z,78.25
2019-02-20T01:17:54.734Z,78.31
2019-02-20T01:20:25.134Z,78.00
2019-02-20T01:22:59.920Z,77.88
2019-02-20T01:25:28.473Z,78.80
2019-02-20T01:27:59.279Z,78.57
2019-02-20T01:30:30.063Z,78.35
2019-02-20T01:33:00.459Z,77.92
2019-02-20T01:35:31.190Z,78.16
2019-02-20T01:38:02.016Z,77.94
2019-02-20T01:40:32.404Z,77.82
2019-02-20T01:43:03.198Z,78.05
2019-02-20T01:45:33.915Z,77.98
2019-02-20T01:48:04.806Z,78.28
2019-02-20T01:50:35.595Z,78.23
2019-02-20T01:53:10.441Z,78.09
2019-02-20T01:55:38.810Z,78.13
2019-02-20T01:58:09.548Z,78.13
2019-02-20T02:00:40.293Z,77.66
2019-02-20T02:03:11.113Z,77.71
2019-02-20T02:05:41.948Z,77.69
2019-02-20T02:08:12.782Z,77.60
2019-02-20T02:10:43.514Z,77.84
2019-02-20T02:13:13.947Z,77.40
2019-02-20T02:15:44.679Z,77.53
2019-02-20T02:18:15.518Z,77.37
2019-02-20T02:20:47.371Z,77.35
2019-02-20T02:23:20.069Z,77.25
2019-02-20T02:25:50.567Z,77.34
2019-02-20T02:28:21.323Z,77.24
2019-02-20T02:30:52.080Z,77.44
2019-02-20T02:33:22.608Z,77.33
2019-02-20T02:35:53.336Z,77.52
2019-02-20T02:38:23.848Z,77.09
2019-02-20T02:40:54.587Z,77.08
2019-02-20T02:43:25.537Z,77.06
2019-02-20T02:45:56.343Z,76.64
2019-02-20T02:48:27.100Z,76.73
2019-02-20T02:50:57.836Z,76.74
2019-02-20T02:53:30.942Z,77.11
2019-02-20T02:56:00.831Z,76.83
2019-02-20T02:58:31.671Z,76.63
2019-02-20T03:01:02.132Z,76.95
2019-02-20T03:03:33.040Z,76.77
2019-02-20T03:06:03.770Z,76.79
2019-02-20T03:08:34.299Z,76.68
2019-02-20T03:11:05.031Z,76.84
2019-02-20T03:13:35.871Z,76.92
2019-02-20T03:16:09.470Z,76.89
2019-02-20T03:18:39.934Z,77.01
2019-02-20T03:21:10.736Z,76.80
2019-02-20T03:23:41.574Z,77.51
2019-02-20T03:26:12.077Z,77.38
2019-02-20T03:28:42.490Z,77.31
2019-02-20T03:31:13.449Z,77.15
2019-02-20T03:33:44.518Z,77.27
2019-02-20T03:36:15.350Z,76.97
2019-02-20T03:38:46.080Z,77.56
2019-02-20T03:41:16.921Z,77.18
2019-02-20T03:43:47.762Z,76.82
2019-02-20T03:46:18.493Z,77.06
2019-02-20T03:48:49.214Z,76.23
2019-02-20T03:51:19.967Z,76.28
2019-02-20T03:53:51.965Z,76.59
2019-02-20T03:56:23.089Z,76.50
2019-02-20T03:58:53.790Z,76.37
2019-02-20T04:01:24.683Z,76.43
2019-02-20T04:03:55.477Z,76.29
2019-02-20T04:06:26.294Z,75.95
2019-02-20T04:08:57.058Z,76.02
2019-02-20T04:11:27.786Z,76.38
2019-02-20T04:13:58.619Z,76.05
2019-02-20T04:16:29.446Z,76.09
2019-02-20T04:19:00.292Z,76.32
2019-02-20T04:21:30.674Z,76.08
2019-02-20T04:24:02.825Z,76.30
2019-02-20T04:26:35.462Z,76.09
2019-02-20T04:29:06.402Z,75.93
2019-02-20T04:31:37.158Z,75.64
2019-02-20T04:34:07.970Z,75.83
2019-02-20T04:36:38.725Z,75.91
2019-02-20T04:39:09.545Z,75.94
2019-02-20T04:41:40.413Z,75.80
2019-02-20T04:44:11.328Z,75.66
2019-02-20T04:46:42.051Z,75.60
2019-02-20T04:49:12.896Z,75.51
2019-02-20T04:51:45.055Z,75.32
2019-02-20T04:54:15.814Z,75.58
2019-02-20T04:56:46.252Z,75.58
2019-02-20T04:59:17.263Z,75.15
2019-02-20T05:01:48.115Z,75.24
2019-02-20T05:04:18.926Z,75.54
2019-02-20T05:06:49.661Z,75.62
2019-02-20T05:09:20.648Z,75.39
2019-02-20T05:11:51.483Z,75.34
2019-02-20T05:14:21.962Z,75.26
2019-02-20T05:16:52.785Z,75.56
2019-02-20T05:19:23.646Z,74.98
2019-02-20T05:21:54.378Z,74.89
2019-02-20T05:24:25.365Z,75.07
2019-02-20T05:26:56.141Z,74.79
2019-02-20T05:29:27.021Z,74.84
2019-02-20T05:31:57.911Z,74.59
2019-02-20T05:34:28.666Z,74.66
2019-02-20T05:36:59.611Z,74.73
2019-02-20T05:39:30.430Z,74.82
2019-02-20T05:42:01.193Z,74.83
2019-02-20T05:44:32.228Z,74.60
2019-02-20T05:47:03.050Z,74.80
2019-02-20T05:49:33.567Z,74.62
2019-02-20T05:52:04.043Z,74.69
2019-02-20T05:54:35.288Z,74.48
2019-02-20T05:57:06.214Z,75.06
2019-02-20T05:59:36.949Z,74.80
2019-02-20T06:02:07.791Z,74.58
2019-02-20T06:04:38.611Z,74.56
2019-02-20T06:07:09.868Z,74.71
2019-02-20T06:09:40.684Z,74.55
2019-02-20T06:12:11.519Z,74.56
2019-02-20T06:14:42.246Z,74.20
2019-02-20T06:17:13.099Z,74.32
2019-02-20T06:19:44.041Z,74.16
2019-02-20T06:22:14.865Z,74.20
2019-02-20T06:24:45.599Z,74.25
2019-02-20T06:27:16.432Z,74.01
2019-02-20T06:29:46.830Z,73.78
2019-02-20T06:32:17.328Z,73.54
2019-02-20T06:34:48.235Z,73.50
2019-02-20T06:37:19.074Z,73.43
2019-02-20T06:39:49.909Z,73.23
2019-02-20T06:42:20.637Z,73.07
2019-02-20T06:44:52.625Z,73.32
2019-02-20T06:47:23.433Z,73.10
2019-02-20T06:49:54.276Z,73.24
2019-02-20T06:52:25.008Z,72.76
2019-02-20T06:54:55.745Z,72.90
2019-02-20T06:57:26.483Z,72.62
2019-02-20T06:59:57.316Z,72.37
2019-02-20T07:02:28.216Z,72.32
2019-02-20T07:05:33.622Z,72.13
2019-02-20T07:08:28.396Z,71.96
2019-02-20T07:11:11.426Z,72.12
2019-02-20T07:14:04.782Z,72.01
2019-02-20T07:17:01.219Z,72.11
2019-02-20T07:19:46.410Z,72.21
2019-02-20T07:22:28.572Z,72.43
2019-02-20T07:25:17.778Z,72.18
2019-02-20T07:28:06.522Z,72.16
2019-02-20T07:30:39.002Z,72.07
2019-02-20T07:33:09.835Z,72.28
2019-02-20T07:35:40.706Z,72.78
2019-02-20T07:38:14.997Z,72.51
2019-02-20T07:40:45.821Z,72.30
2019-02-20T07:43:16.658Z,72.54
2019-02-20T07:45:49.207Z,72.30
2019-02-20T07:48:19.909Z,72.12
2019-02-20T07:50:50.820Z,72.27
2019-02-20T07:53:23.220Z,72.37
2019-02-20T07:55:53.916Z,72.06
2019-02-20T07:58:24.753Z,72.38
2019-02-20T08:00:55.617Z,71.88
2019-02-20T08:03:26.540Z,71.94
2019-02-20T08:05:57.015Z,72.24
2019-02-20T08:08:27.932Z,72.02
2019-02-20T08:10:58.448Z,72.25
2019-02-20T08:13:38.884Z,72.41
2019-02-20T08:16:01.838Z,72.27
2019-02-20T08:18:32.677Z,72.17
2019-02-20T08:21:03.511Z,72.37
2019-02-20T08:23:34.240Z,72.50
2019-02-20T08:26:05.227Z,72.62
2019-02-20T08:28:35.927Z,72.89
2019-02-20T08:31:06.474Z,72.61
2019-02-20T08:33:37.200Z,72.41
2019-02-20T08:36:07.654Z,71.90
2019-02-20T08:38:38.471Z,71.61
2019-02-20T08:41:09.226Z,72.09
2019-02-20T08:43:40.051Z,72.36
2019-02-20T08:46:10.616Z,71.53
2019-02-20T08:48:41.499Z,71.49
2019-02-20T08:51:12.340Z,71.28
2019-02-20T08:53:43.277Z,71.12
2019-02-20T08:56:14.165Z,70.89
2019-02-20T08:58:44.925Z,70.69
2019-02-20T09:01:15.803Z,70.53
2019-02-20T09:03:46.619Z,69.93
2019-02-20T09:06:17.457Z,69.83
2019-02-20T09:08:48.950Z,69.86
2019-02-20T09:11:19.391Z,69.88
2019-02-20T09:13:50.178Z,69.89
2019-02-20T09:16:23.215Z,69.90
2019-02-20T09:18:53.741Z,69.76
2019-02-20T09:21:24.251Z,69.67
2019-02-20T09:23:55.050Z,69.46
2019-02-20T09:26:25.507Z,68.75
2019-02-20T09:28:57.240Z,68.93
2019-02-20T09:31:28.059Z,69.07
2019-02-20T09:33:59.033Z,69.06
2019-02-20T09:36:29.740Z,68.98
2019-02-20T09:39:03.892Z,68.63
2019-02-20T09:41:34.622Z,68.51
2019-02-20T09:44:05.431Z,68.75
2019-02-20T09:46:36.170Z,68.80
2019-02-20T09:49:07.039Z,68.81
2019-02-20T09:51:37.890Z,68.42
2019-02-20T09:54:08.453Z,68.27
2019-02-20T09:56:39.320Z,68.14
2019-02-20T09:59:10.131Z,67.79
2019-02-20T10:01:40.797Z,67.69
2019-02-20T10:04:11.693Z,67.91
2019-02-20T10:06:42.554Z,68.01
2019-02-20T10:09:13.510Z,68.33
2019-02-20T10:11:44.196Z,68.68
2019-02-20T10:14:17.365Z,68.72
2019-02-20T10:16:48.170Z,68.68
2019-02-20T10:19:19.009Z,68.82
2019-02-20T10:21:49.696Z,68.89
2019-02-20T10:24:20.578Z,68.86
2019-02-20T10:27:00.327Z,68.51
2019-02-20T10:29:25.592Z,68.46
2019-02-20T10:31:56.332Z,67.86
2019-02-20T10:34:28.983Z,68.17
2019-02-20T10:36:59.847Z,68.24
2019-02-20T10:39:30.264Z,67.94
2019-02-20T10:42:00.747Z,67.80
2019-02-20T10:44:31.537Z,67.61
2019-02-20T10:47:02.410Z,67.15
2019-02-20T10:49:33.229Z,67.24
2019-02-20T10:52:04.043Z,67.27
2019-02-20T10:54:34.571Z,67.16
2019-02-20T10:57:05.415Z,67.04
2019-02-20T10:59:36.289Z,67.09
2019-02-20T11:02:07.847Z,67.03
2019-02-20T11:04:38.639Z,67.19
2019-02-20T11:07:11.225Z,67.23
2019-02-20T11:09:42.066Z,67.06
2019-02-20T11:12:12.872Z,66.97
2019-02-20T11:14:43.359Z,66.89
2019-02-20T11:17:14.172Z,66.77
2019-02-20T11:19:45.524Z,66.86
2019-02-20T11:22:16.459Z,66.78
2019-02-20T11:24:49.353Z,66.58
2019-02-20T11:27:20.165Z,66.83
2019-02-20T11:29:51.039Z,66.44
2019-02-20T11:32:21.882Z,66.39
2019-02-20T11:34:52.808Z,66.12
2019-02-20T11:37:23.765Z,65.18
2019-02-20T11:39:54.677Z,64.96
2019-02-20T11:42:25.427Z,64.27
2019-02-20T11:44:56.243Z,63.83
2019-02-20T11:47:26.963Z,64.40
2019-02-20T11:49:57.924Z,64.32
2019-02-20T11:52:28.729Z,64.85
2019-02-20T11:54:59.511Z,64.75
2019-02-20T11:57:30.311Z,64.86
2019-02-20T12:00:01.059Z,64.71
2019-02-20T12:02:37.344Z,64.28
2019-02-20T12:05:05.894Z,64.01
2019-02-20T12:07:36.753Z,64.35
2019-02-20T12:10:10.465Z,64.25
2019-02-20T12:12:41.305Z,64.07
2019-02-20T12:15:12.016Z,64.03
2019-02-20T12:17:42.448Z,63.65
2019-02-20T12:20:13.569Z,63.19
2019-02-20T12:22:44.335Z,62.93
2019-02-20T12:25:15.648Z,63.35
2019-02-20T12:27:47.575Z,63.24
2019-02-20T12:30:18.377Z,63.49
2019-02-20T12:32:49.251Z,63.45
2019-02-20T12:35:20.193Z,63.42
2019-02-20T12:37:50.734Z,63.43
2019-02-20T12:40:21.612Z,63.95
2019-02-20T12:42:52.454Z,64.22
2019-02-20T12:45:23.192Z,64.04
2019-02-20T12:47:53.998Z,63.36
2019-02-20T12:50:24.869Z,63.06
2019-02-20T12:52:55.805Z,62.94
2019-02-20T12:55:26.744Z,63.29
2019-02-20T12:57:57.658Z,63.12
2019-02-20T13:00:28.485Z,63.06
2019-02-20T13:02:59.257Z,62.48
2019-02-20T13:05:30.081Z,62.73
2019-02-20T13:08:00.926Z,62.66
2019-02-20T13:10:31.853Z,62.62
2019-02-20T13:13:02.708Z,63.20
2019-02-20T13:15:33.719Z,63.09
2019-02-20T13:18:04.215Z,63.20
2019-02-20T13:20:35.106Z,63.83
2019-02-20T13:23:05.977Z,64.31
2019-02-20T13:25:38.497Z,64.16
2019-02-20T13:28:09.113Z,64.12
2019-02-20T13:30:40.353Z,63.70
2019-02-20T13:33:11.262Z,63.46
2019-02-20T13:35:42.211Z,62.87
2019-02-20T13:38:12.739Z,63.29
2019-02-20T13:40:43.636Z,63.32
2019-02-20T13:43:14.535Z,63.34
2019-02-20T13:45:45.563Z,63.29
2019-02-20T13:48:16.447Z,63.42
2019-02-20T13:50:47.285Z,63.29
2019-02-20T13:53:18.118Z,63.64
2019-02-20T13:55:48.971Z,63.69
2019-02-20T13:58:19.891Z,63.53
2019-02-20T14:00:50.972Z,63.40
2019-02-20T14:03:21.877Z,63.87
2019-02-20T14:05:52.713Z,63.47
2019-02-20T14:08:23.188Z,63.17
2019-02-20T14:10:54.194Z,63.13
2019-02-20T14:13:25.020Z,62.99
2019-02-20T14:15:55.983Z,63.25
2019-02-20T14:18:26.782Z,63.07
2019-02-20T14:20:57.366Z,63.21
2019-02-20T14:23:29.719Z,63.27
2019-02-20T14:26:00.779Z,63.84
2019-02-20T14:28:31.786Z,63.85
2019-02-20T14:31:02.620Z,63.77
2019-02-20T14:33:33.447Z,64.10
2019-02-20T14:36:04.276Z,63.97
2019-02-20T14:38:35.118Z,63.64
2019-02-20T14:41:06.478Z,63.75
2019-02-20T14:43:37.446Z,63.87
2019-02-20T14:46:08.399Z,63.97
2019-02-20T14:48:39.395Z,64.06
2019-02-20T14:51:10.231Z,63.67
2019-02-20T14:53:41.063Z,64.22
2019-02-20T14:56:12.034Z,63.65
2019-02-20T14:58:43.680Z,63.62
2019-02-20T15:01:14.593Z,63.00
2019-02-20T15:03:45.187Z,63.11
2019-02-20T15:06:16.071Z,62.99
2019-02-20T15:08:47.103Z,63.10
2019-02-20T15:11:17.675Z,62.66
2019-02-20T15:13:48.576Z,61.43
2019-02-20T15:16:19.442Z,61.71
2019-02-20T15:18:51.904Z,61.85
2019-02-20T15:21:22.838Z,62.04
2019-02-20T15:23:53.659Z,62.08
2019-02-20T15:26:24.178Z,62.55
2019-02-20T15:28:54.947Z,62.63
2019-02-20T15:31:33.452Z,62.98
2019-02-20T15:33:58.487Z,62.71
2019-02-20T15:36:29.295Z,62.92
2019-02-20T15:39:01.683Z,62.49
2019-02-20T15:41:32.556Z,62.05
2019-02-20T15:44:03.463Z,62.25
2019-02-20T15:46:34.252Z,62.35
2019-02-20T15:49:05.641Z,62.83
2019-02-20T15:51:39.524Z,62.96
2019-02-20T15:54:14.460Z,63.68
2019-02-20T15:56:45.286Z,62.50
2019-02-20T15:59:16.238Z,62.65
2019-02-20T16:01:47.502Z,63.12
2019-02-20T16:04:25.822Z,62.66
2019-02-20T16:06:59.496Z,63.06
2019-02-20T16:09:30.462Z,63.31
2019-02-20T16:12:01.402Z,63.01
2019-02-20T16:14:32.751Z,63.15
2019-02-20T16:17:04.096Z,63.10
2019-02-20T16:19:34.667Z,63.16
2019-02-20T16:22:05.440Z,63.49
2019-02-20T16:24:36.367Z,63.70
2019-02-20T16:27:08.398Z,63.78
2019-02-20T16:29:39.279Z,64.43
2019-02-20T16:32:14.442Z,64.64
2019-02-20T16:34:45.990Z,65.12
2019-02-20T16:37:16.805Z,65.00
2019-02-20T16:39:49.200Z,65.21
2019-02-20T16:42:21.545Z,65.18
2019-02-20T16:44:53.606Z,65.40
2019-02-20T16:47:25.994Z,65.28
2019-02-20T16:49:56.862Z,65.53
2019-02-20T16:52:29.276Z,65.58
2019-02-20T16:55:01.614Z,65.84
2019-02-20T16:57:32.669Z,65.44
2019-02-20T17:00:03.568Z,65.59
2019-02-20T17:02:34.486Z,65.55
2019-02-20T17:05:13.394Z,65.39
2019-02-20T17:07:40.254Z,65.36
2019-02-20T17:10:13.383Z,65.98
2019-02-20T17:12:43.942Z,65.49
2019-02-20T17:15:16.568Z,65.78
2019-02-20T17:17:47.842Z,66.42
2019-02-20T17:20:20.127Z,65.70
2019-02-20T17:22:51.283Z,65.61
2019-02-20T17:25:22.292Z,66.08
2019-02-20T17:27:53.198Z,65.59
2019-02-20T17:30:24.155Z,65.25
2019-02-20T17:32:55.064Z,65.39
2019-02-20T17:35:26.295Z,65.16
2019-02-20T17:37:57.356Z,65.30
2019-02-20T17:40:28.337Z,65.40
2019-02-20T17:43:01.757Z,65.27
2019-02-20T17:45:32.553Z,65.40
2019-02-20T17:48:03.366Z,65.53
2019-02-20T17:50:34.202Z,65.61
2019-02-20T17:53:05.029Z,65.55
2019-02-20T17:55:35.551Z,65.50
2019-02-20T17:58:14.859Z,65.64
2019-02-20T18:00:39.818Z,65.95
2019-02-20T18:03:10.656Z,65.20
2019-02-20T18:05:41.611Z,65.19
2019-02-20T18:08:12.575Z,65.22
2019-02-20T18:10:45.145Z,65.13
2019-02-20T18:13:16.056Z,65.16
2019-02-20T18:15:46.601Z,65.06
2019-02-20T18:18:17.438Z,65.02
2019-02-20T18:20:48.349Z,64.80
2019-02-20T18:23:19.090Z,65.21
2019-02-20T18:25:49.935Z,64.90
2019-02-20T18:28:24.447Z,65.07
2019-02-20T18:30:53.436Z,65.11
2019-02-20T18:33:24.020Z,65.06
2019-02-20T18:35:54.974Z,64.89
2019-02-20T18:38:25.762Z,65.22
2019-02-20T18:40:56.701Z,65.38
2019-02-20T18:43:27.516Z,65.02
2019-02-20T18:45:59.899Z,65.26
2019-02-20T18:48:30.777Z,65.52
2019-02-20T18:51:01.622Z,65.00
2019-02-20T18:53:32.513Z,65.27
2019-02-20T18:56:03.453Z,65.12
2019-02-20T18:58:34.454Z,65.08
2019-02-20T19:01:05.223Z,65.38
2019-02-20T19:03:35.741Z,65.53
2019-02-20T19:06:06.765Z,65.22
2019-02-20T19:08:43.420Z,65.25
2019-02-20T19:11:37.907Z,66.00
2019-02-20T19:14:42.635Z,65.57
2019-02-20T19:17:32.912Z,65.70
2019-02-20T19:20:06.827Z,66.07
2019-02-20T19:23:14.187Z,66.54
2019-02-20T19:25:56.957Z,65.81
2019-02-20T19:28:44.317Z,65.54
2019-02-20T19:31:36.363Z,65.62
2019-02-20T19:34:10.466Z,65.99
2019-02-20T19:37:02.060Z,65.77
2019-02-20T19:40:01.672Z,65.74
2019-02-20T19:42:59.581Z,65.55
2019-02-20T19:45:37.808Z,65.54
2019-02-20T19:48:32.690Z,65.87
2019-02-20T19:51:23.275Z,65.89
2019-02-20T19:54:21.531Z,65.67
2019-02-20T19:57:01.220Z,66.23
2019-02-20T19:59:47.317Z,66.09
2019-02-20T20:02:33.250Z,66.09
2019-02-20T20:05:22.747Z,65.90
2019-02-20T20:08:07.922Z,65.68
2019-02-20T20:10:57.404Z,65.69
2019-02-20T20:13:40.399Z,65.76
2019-02-20T20:16:29.326Z,66.40
2019-02-20T20:19:24.127Z,65.86
2019-02-20T20:22:06.885Z,65.62
2019-02-20T20:24:50.217Z,65.32
2019-02-20T20:27:24.311Z,65.69
2019-02-20T20:30:27.883Z,65.65
2019-02-20T20:33:11.333Z,65.46
2019-02-20T20:35:53.691Z,65.24
2019-02-20T20:38:39.545Z,65.24
2019-02-20T20:41:19.443Z,64.94
2019-02-20T20:43:59.431Z,64.85
2019-02-20T20:46:53.321Z,65.17
2019-02-20T20:49:19.050Z,64.98
2019-02-20T20:52:21.690Z,65.24
2019-02-20T20:55:05.769Z,65.76
2019-02-20T20:58:02.451Z,65.70
2019-02-20T21:00:53.054Z,65.61
2019-02-20T21:03:27.221Z,65.88
2019-02-20T21:06:26.704Z,65.38
2019-02-20T21:09:00.602Z,65.49
2019-02-20T21:11:55.168Z,65.28
2019-02-20T21:14:33.224Z,65.25
2019-02-20T21:17:36.065Z,65.70
2019-02-20T21:20:25.706Z,65.78
2019-02-20T21:23:30.981Z,65.52
2019-02-20T21:26:10.433Z,64.60
2019-02-20T21:29:05.445Z,64.84
2019-02-20T21:31:45.430Z,65.10
2019-02-20T21:34:38.694Z,65.29
2019-02-20T21:37:30.836Z,65.39
2019-02-20T21:40:21.091Z,65.39
2019-02-20T21:43:12.113Z,65.17
2019-02-20T21:45:55.026Z,65.11
2019-02-20T21:48:43.430Z,65.33
2019-02-20T21:51:20.391Z,66.02
2019-02-20T21:53:54.353Z,65.43
2019-02-20T21:56:37.103Z,65.44
2019-02-20T21:59:22.990Z,65.34
2019-02-20T22:02:05.969Z,65.47
2019-02-20T22:05:04.116Z,65.23
2019-02-20T22:07:49.635Z,65.19
2019-02-20T22:10:43.139Z,65.51
2019-02-20T22:13:31.735Z,65.66
2019-02-20T22:16:25.977Z,65.68
2019-02-20T22:19:06.471Z,66.17
2019-02-20T22:22:07.448Z,65.95
2019-02-20T22:24:57.833Z,65.81
2019-02-20T22:27:45.888Z,66.18
2019-02-20T22:30:28.493Z,65.65
2019-02-20T22:33:11.385Z,66.42
2019-02-20T22:36:02.634Z,65.72
2019-02-20T22:39:04.164Z,66.00
2019-02-20T22:41:48.024Z,65.66
2019-02-20T22:44:40.057Z,65.83
2019-02-20T22:47:33.952Z,66.17
2019-02-20T22:50:17.871Z,66.38
2019-02-20T22:53:00.051Z,66.29
2019-02-20T22:55:50.427Z,65.65
2019-02-20T22:58:33.007Z,65.17
2019-02-20T23:01:25.893Z,65.23
2019-02-20T23:04:04.456Z,65.20
2019-02-20T23:06:48.399Z,65.02
2019-02-20T23:09:36.235Z,65.00
2019-02-20T23:12:22.495Z,64.99
2019-02-20T23:14:58.791Z,65.03
2019-02-20T23:17:29.625Z,65.13
2019-02-20T23:20:00.448Z,65.03
2019-02-20T23:22:31.326Z,64.95
2019-02-20T23:25:02.135Z,65.24
2019-02-20T23:27:32.857Z,65.06
2019-02-20T23:30:12.563Z,65.00
2019-02-20T23:32:36.600Z,65.11
2019-02-20T23:35:09.061Z,65.43
2019-02-20T23:37:39.931Z,65.78
2019-02-20T23:40:11.153Z,65.13
2019-02-20T23:42:42.009Z,65.44
2019-02-20T23:45:12.838Z,65.75
2019-02-20T23:47:44.982Z,65.93
2019-02-20T23:50:15.831Z,66.09
2019-02-20T23:52:46.552Z,65.48
2019-02-20T23:55:16.941Z,65.70
2019-02-20T23:57:47.847Z,65.42
